createdAt,value
2023-04-07T00:02:32.302Z,12.63
2023-04-07T00:05:18.115Z,12.93
2023-04-07T00:08:03.249Z,12.20
2023-04-07T00:10:48.709Z,11.73
2023-04-07T00:13:34.235Z,9.60
2023-04-07T00:16:19.772Z,9.90
2023-04-07T00:19:05.138Z,9.88
2023-04-07T00:21:50.433Z,10.68
2023-04-07T00:24:36.034Z,8.90
2023-04-07T00:27:23.203Z,7.97
2023-04-07T00:30:08.825Z,6.97
2023-04-07T00:32:54.470Z,5.93
2023-04-07T00:35:39.993Z,4.85
2023-04-07T00:38:25.412Z,4.75
2023-04-07T00:41:10.531Z,4.50
2023-04-07T00:43:55.955Z,4.72
2023-04-07T00:46:41.913Z,4.03
2023-04-07T00:49:31.463Z,4.75
2023-04-07T00:52:18.678Z,5.00
2023-04-07T00:55:04.052Z,4.82
2023-04-07T00:57:49.496Z,4.47
2023-04-07T01:00:43.096Z,5.72
2023-04-07T01:03:39.475Z,5.68
2023-04-07T01:06:27.742Z,4.95
2023-04-07T01:09:33.677Z,4.13
2023-04-07T01:12:28.906Z,3.50
2023-04-07T01:15:16.164Z,3.40
2023-04-07T01:18:14.456Z,4.18
2023-04-07T01:21:06.521Z,4.13
2023-04-07T01:24:13.566Z,3.83
2023-04-07T01:27:13.844Z,4.45
2023-04-07T01:30:03.493Z,3.70
2023-04-07T01:32:52.264Z,3.70
2023-04-07T01:35:41.409Z,3.47
2023-04-07T01:38:27.494Z,3.17
2023-04-07T01:41:15.451Z,3.80
2023-04-07T01:44:02.043Z,4.00
2023-04-07T01:46:48.551Z,3.80
2023-04-07T01:49:35.418Z,3.35
2023-04-07T01:52:21.580Z,3.35
2023-04-07T01:55:08.182Z,3.72
2023-04-07T01:57:57.506Z,3.40
2023-04-07T02:00:43.454Z,3.63
2023-04-07T02:04:02.254Z,3.53
2023-04-07T02:06:53.040Z,3.53
2023-04-07T02:09:44.714Z,3.55
2023-04-07T02:12:31.172Z,3.70
2023-04-07T02:15:32.078Z,3.10
2023-04-07T02:18:20.021Z,2.65
2023-04-07T02:21:08.768Z,2.90
2023-04-07T02:23:55.562Z,2.90
2023-04-07T02:26:43.391Z,2.63
2023-04-07T02:29:28.501Z,2.70
2023-04-07T02:32:14.054Z,2.88
2023-04-07T02:34:59.721Z,2.30
2023-04-07T02:37:46.627Z,3.03
2023-04-07T02:40:32.024Z,2.83
2023-04-07T02:43:19.010Z,3.90
2023-04-07T02:46:04.211Z,3.50
2023-04-07T02:48:49.777Z,3.83
2023-04-07T02:51:35.453Z,4.35
2023-04-07T02:54:20.782Z,4.18
2023-04-07T02:57:06.141Z,4.45
2023-04-07T02:59:51.480Z,4.25
2023-04-07T03:02:37.175Z,3.72
2023-04-07T03:05:22.576Z,4.82
2023-04-07T03:08:07.987Z,3.67
2023-04-07T03:10:53.465Z,4.43
2023-04-07T03:13:44.541Z,4.40
2023-04-07T03:16:30.313Z,4.65
2023-04-07T03:19:24.353Z,4.00
2023-04-07T03:22:11.450Z,4.30
2023-04-07T03:25:04.533Z,3.63
2023-04-07T03:27:49.916Z,3.63
2023-04-07T03:30:36.783Z,3.10
2023-04-07T03:33:22.539Z,3.35
2023-04-07T03:36:08.314Z,3.38
2023-04-07T03:38:53.561Z,3.22
2023-04-07T03:41:39.085Z,2.88
2023-04-07T03:44:24.530Z,3.47
2023-04-07T03:47:09.847Z,3.10
2023-04-07T03:49:56.417Z,3.95
2023-04-07T03:52:42.475Z,3.35
2023-04-07T03:55:39.776Z,3.50
2023-04-07T03:58:32.098Z,3.50
2023-04-07T04:01:18.205Z,3.10
2023-04-07T04:04:05.933Z,4.20
2023-04-07T04:06:51.599Z,3.08
2023-04-07T04:09:42.839Z,3.47
2023-04-07T04:12:28.723Z,2.75
2023-04-07T04:15:23.290Z,3.30
2023-04-07T04:18:09.728Z,4.57
2023-04-07T04:20:55.286Z,3.13
2023-04-07T04:23:41.648Z,3.15
2023-04-07T04:26:27.289Z,3.90
2023-04-07T04:29:17.266Z,3.53
2023-04-07T04:32:03.469Z,3.15
2023-04-07T04:34:49.449Z,2.65
2023-04-07T04:37:35.571Z,2.97
2023-04-07T04:40:25.946Z,3.42
2023-04-07T04:43:11.648Z,3.63
2023-04-07T04:45:59.468Z,3.70
2023-04-07T04:48:47.435Z,3.63
2023-04-07T04:51:35.210Z,4.00
2023-04-07T04:54:28.608Z,3.30
2023-04-07T04:57:16.088Z,3.47
2023-04-07T05:00:04.229Z,2.80
2023-04-07T05:02:49.716Z,3.45
2023-04-07T05:05:35.329Z,3.40
2023-04-07T05:08:21.863Z,3.38
2023-04-07T05:11:07.068Z,3.15
2023-04-07T05:13:53.813Z,2.95
2023-04-07T05:16:39.133Z,2.95
2023-04-07T05:19:25.500Z,2.92
2023-04-07T05:22:14.357Z,3.58
2023-04-07T05:25:06.437Z,3.15
2023-04-07T05:27:52.525Z,3.22
2023-04-07T05:30:38.084Z,2.45
2023-04-07T05:33:23.798Z,2.80
2023-04-07T05:36:11.795Z,2.35
2023-04-07T05:38:59.633Z,2.50
2023-04-07T05:41:45.749Z,2.67
2023-04-07T05:44:33.030Z,2.92
2023-04-07T05:47:18.387Z,2.53
2023-04-07T05:50:04.118Z,2.80
2023-04-07T05:52:50.780Z,2.65
2023-04-07T05:55:43.478Z,2.50
2023-04-07T05:58:32.684Z,3.30
2023-04-07T06:01:18.274Z,3.28
2023-04-07T06:04:04.170Z,3.60
2023-04-07T06:06:49.403Z,3.08
2023-04-07T06:09:36.832Z,3.38
2023-04-07T06:12:22.126Z,3.30
2023-04-07T06:15:08.140Z,2.92
2023-04-07T06:17:53.582Z,3.28
2023-04-07T06:20:39.055Z,3.00
2023-04-07T06:23:24.448Z,3.10
2023-04-07T06:26:14.684Z,2.85
2023-04-07T06:28:59.848Z,2.90
2023-04-07T06:31:45.595Z,3.10
2023-04-07T06:34:31.001Z,3.47
2023-04-07T06:37:16.974Z,2.28
2023-04-07T06:40:02.468Z,1.98
2023-04-07T06:42:47.562Z,2.35
2023-04-07T06:45:43.813Z,1.65
2023-04-07T06:48:29.158Z,1.55
2023-04-07T06:51:14.672Z,2.10
2023-04-07T06:54:00.002Z,2.22
2023-04-07T06:56:45.746Z,1.90
2023-04-07T06:59:31.241Z,1.55
2023-04-07T07:02:17.142Z,1.90
2023-04-07T07:05:04.754Z,2.45
2023-04-07T07:07:51.468Z,1.83
2023-04-07T07:10:36.920Z,1.70
2023-04-07T07:13:24.956Z,1.70
2023-04-07T07:16:10.052Z,1.65
2023-04-07T07:18:55.391Z,1.92
2023-04-07T07:21:40.999Z,1.30
2023-04-07T07:24:26.332Z,1.60
2023-04-07T07:27:11.877Z,1.88
2023-04-07T07:29:56.885Z,1.75
2023-04-07T07:32:42.436Z,1.73
2023-04-07T07:35:27.997Z,1.80
2023-04-07T07:38:13.257Z,1.80
2023-04-07T07:40:58.857Z,1.60
2023-04-07T07:43:44.300Z,1.50
2023-04-07T07:46:29.648Z,2.17
2023-04-07T07:49:15.029Z,1.77
2023-04-07T07:52:00.839Z,1.60
2023-04-07T07:54:46.505Z,1.77
2023-04-07T07:57:31.931Z,1.70
2023-04-07T08:00:17.567Z,1.40
2023-04-07T08:03:03.101Z,1.80
2023-04-07T08:05:49.291Z,1.35
2023-04-07T08:08:34.619Z,1.50
2023-04-07T08:11:21.338Z,1.52
2023-04-07T08:14:08.763Z,1.98
2023-04-07T08:16:55.494Z,1.50
2023-04-07T08:19:40.623Z,1.80
2023-04-07T08:22:26.354Z,1.63
2023-04-07T08:25:12.100Z,1.80
2023-04-07T08:27:57.575Z,1.30
2023-04-07T08:30:43.122Z,1.60
2023-04-07T08:33:28.255Z,1.30
2023-04-07T08:36:13.848Z,1.48
2023-04-07T08:39:01.244Z,1.52
2023-04-07T08:41:48.770Z,1.50
2023-04-07T08:44:36.943Z,1.40
2023-04-07T08:47:23.727Z,1.58
2023-04-07T08:50:11.596Z,1.17
2023-04-07T08:53:01.750Z,1.00
2023-04-07T08:55:47.214Z,1.23
2023-04-07T08:58:33.001Z,1.15
2023-04-07T09:01:19.209Z,1.45
2023-04-07T09:04:05.674Z,1.40
2023-04-07T09:06:51.084Z,1.20
2023-04-07T09:09:36.555Z,0.95
2023-04-07T09:12:22.122Z,1.00
2023-04-07T09:15:08.524Z,1.02
2023-04-07T09:17:54.349Z,0.98
2023-04-07T09:20:59.596Z,1.08
2023-04-07T09:23:47.647Z,1.10
2023-04-07T09:26:33.988Z,1.15
2023-04-07T09:29:21.338Z,1.00
2023-04-07T09:32:07.495Z,1.10
2023-04-07T09:35:00.246Z,1.13
2023-04-07T09:40:48.391Z,1.23
2023-04-07T09:43:36.515Z,1.00
2023-04-07T09:46:22.299Z,0.98
2023-04-07T09:49:08.950Z,0.95
2023-04-07T09:51:58.140Z,1.25
2023-04-07T09:54:43.408Z,0.90
2023-04-07T09:57:29.027Z,1.05
2023-04-07T10:00:15.054Z,0.90
2023-04-07T10:03:01.869Z,1.08
2023-04-07T10:05:48.298Z,1.15
2023-04-07T10:08:36.297Z,0.90
2023-04-07T10:11:21.628Z,0.85
2023-04-07T10:14:07.596Z,1.10
2023-04-07T10:16:53.159Z,1.17
2023-04-07T10:19:38.869Z,1.20
2023-04-07T10:22:26.738Z,1.30
2023-04-07T10:25:14.639Z,1.30
2023-04-07T10:28:04.532Z,1.48
2023-04-07T10:30:50.702Z,1.48
2023-04-07T10:33:51.709Z,1.25
2023-04-07T10:37:11.315Z,1.48
2023-04-07T10:40:18.658Z,1.80
2023-04-07T10:43:09.573Z,1.80
2023-04-07T10:45:57.693Z,1.70
2023-04-07T10:48:43.345Z,1.90
2023-04-07T10:51:28.777Z,1.75
2023-04-07T10:54:23.197Z,1.48
2023-04-07T10:57:14.300Z,2.03
2023-04-07T11:00:12.093Z,2.17
2023-04-07T11:02:57.710Z,1.10
2023-04-07T11:05:43.639Z,1.80
2023-04-07T11:08:43.460Z,1.50
2023-04-07T11:11:40.865Z,1.60
2023-04-07T11:14:33.650Z,1.58
2023-04-07T11:17:18.794Z,2.67
2023-04-07T11:20:04.803Z,2.05
2023-04-07T11:23:00.327Z,1.88
2023-04-07T11:25:50.449Z,1.67
2023-04-07T11:28:46.269Z,1.70
2023-04-07T11:31:32.348Z,1.83
2023-04-07T11:34:17.998Z,1.60
2023-04-07T11:37:19.533Z,1.63
2023-04-07T11:40:05.711Z,1.47
2023-04-07T11:42:52.313Z,1.42
2023-04-07T11:45:37.791Z,1.45
2023-04-07T11:48:31.072Z,1.38
2023-04-07T11:51:22.637Z,1.60
2023-04-07T11:54:08.293Z,1.50
2023-04-07T11:56:55.950Z,1.27
2023-04-07T11:59:41.916Z,1.45
2023-04-07T12:02:34.963Z,1.63
2023-04-07T12:05:20.935Z,1.13
2023-04-07T12:08:06.565Z,0.90
2023-04-07T12:11:04.440Z,1.20
2023-04-07T12:13:50.165Z,1.65
2023-04-07T12:16:38.906Z,1.33
2023-04-07T12:19:27.239Z,1.15
2023-04-07T12:22:12.470Z,1.65
2023-04-07T12:24:57.858Z,1.30
2023-04-07T12:27:44.065Z,1.40
2023-04-07T12:30:29.299Z,1.38
2023-04-07T12:33:15.912Z,1.25
2023-04-07T12:36:01.868Z,1.50
2023-04-07T12:38:47.210Z,1.25
2023-04-07T12:41:32.563Z,1.58
2023-04-07T12:44:18.092Z,1.77
2023-04-07T12:47:03.886Z,1.35
2023-04-07T12:49:50.223Z,1.55
2023-04-07T12:52:36.476Z,1.55
2023-04-07T12:55:21.938Z,1.80
2023-04-07T12:58:08.017Z,1.50
2023-04-07T13:00:53.526Z,1.70
2023-04-07T13:03:39.349Z,2.50
2023-04-07T13:06:24.616Z,2.40
2023-04-07T13:09:10.454Z,2.13
2023-04-07T13:11:56.950Z,1.88
2023-04-07T13:14:52.847Z,1.92
2023-04-07T13:17:45.189Z,1.90
2023-04-07T13:20:30.687Z,2.10
2023-04-07T13:23:16.056Z,2.50
2023-04-07T13:26:01.644Z,2.65
2023-04-07T13:28:47.789Z,2.60
2023-04-07T13:31:33.350Z,2.53
2023-04-07T13:34:18.863Z,2.67
2023-04-07T13:37:04.866Z,2.75
2023-04-07T13:39:50.511Z,2.13
2023-04-07T13:42:36.016Z,2.42
2023-04-07T13:45:21.476Z,1.85
2023-04-07T13:48:07.221Z,2.20
2023-04-07T13:50:52.839Z,2.05
2023-04-07T13:53:38.518Z,2.33
2023-04-07T13:56:23.890Z,1.92
2023-04-07T13:59:09.569Z,3.28
2023-04-07T14:01:55.062Z,2.50
2023-04-07T14:04:40.406Z,2.38
2023-04-07T14:07:25.867Z,2.92
2023-04-07T14:10:11.089Z,3.00
2023-04-07T14:12:57.034Z,2.70
2023-04-07T14:15:42.518Z,2.50
2023-04-07T14:18:27.978Z,2.20
2023-04-07T14:21:13.858Z,3.58
2023-04-07T14:23:59.929Z,4.50
2023-04-07T14:26:46.202Z,3.30
2023-04-07T14:29:31.674Z,3.13
2023-04-07T14:32:17.352Z,3.00
2023-04-07T14:35:02.623Z,4.13
2023-04-07T14:37:48.016Z,3.95
2023-04-07T14:40:33.458Z,3.95
2023-04-07T14:43:19.020Z,3.17
2023-04-07T14:46:04.274Z,3.10
2023-04-07T14:48:53.351Z,2.83
2023-04-07T14:51:39.469Z,4.80
2023-04-07T14:54:24.670Z,4.20
2023-04-07T14:57:11.548Z,3.92
2023-04-07T14:59:56.891Z,3.30
2023-04-07T15:02:42.582Z,4.05
2023-04-07T15:05:29.726Z,3.58
2023-04-07T15:08:14.829Z,3.70
2023-04-07T15:11:00.627Z,3.70
2023-04-07T15:13:46.259Z,3.20
2023-04-07T15:16:31.461Z,3.47
2023-04-07T15:19:16.954Z,5.28
2023-04-07T15:22:02.289Z,4.30
2023-04-07T15:24:47.866Z,5.15
2023-04-07T15:27:33.215Z,4.18
2023-04-07T15:30:18.839Z,4.20
2023-04-07T15:33:04.459Z,4.68
2023-04-07T15:35:50.188Z,4.97
2023-04-07T15:38:35.792Z,4.70
2023-04-07T15:41:21.705Z,3.38
2023-04-07T15:44:07.138Z,3.63
2023-04-07T15:46:53.986Z,3.55
2023-04-07T15:49:39.954Z,3.13
2023-04-07T15:52:25.346Z,3.17
2023-04-07T15:55:10.808Z,5.15
2023-04-07T15:57:56.134Z,4.18
2023-04-07T16:00:41.938Z,3.90
2023-04-07T16:03:28.844Z,4.75
2023-04-07T16:06:14.446Z,4.22
2023-04-07T16:08:59.901Z,6.18
2023-04-07T16:11:45.493Z,4.43
2023-04-07T16:14:31.233Z,4.45
2023-04-07T16:17:16.994Z,4.78
2023-04-07T16:20:03.441Z,4.35
2023-04-07T16:22:49.264Z,5.80
2023-04-07T16:25:35.449Z,5.80
2023-04-07T16:28:20.907Z,4.90
2023-04-07T16:31:08.642Z,4.45
2023-04-07T16:33:53.838Z,5.03
2023-04-07T16:36:40.361Z,4.15
2023-04-07T16:39:27.469Z,4.88
2023-04-07T16:42:14.258Z,8.68
2023-04-07T16:45:01.429Z,6.10
2023-04-07T16:47:46.912Z,7.55
2023-04-07T16:50:32.204Z,7.20
2023-04-07T16:53:21.078Z,7.88
2023-04-07T16:56:14.654Z,6.65
2023-04-07T16:59:00.949Z,6.45
2023-04-07T17:01:48.047Z,6.57
2023-04-07T17:04:33.601Z,6.88
2023-04-07T17:07:19.514Z,8.68
2023-04-07T17:10:05.110Z,8.95
2023-04-07T17:12:54.025Z,9.23
2023-04-07T17:15:39.246Z,11.70
2023-04-07T17:18:25.562Z,10.43
2023-04-07T17:21:11.097Z,9.73
2023-04-07T17:23:56.368Z,9.23
2023-04-07T17:26:42.979Z,11.60
2023-04-07T17:29:30.142Z,10.38
2023-04-07T17:32:15.340Z,9.40
2023-04-07T17:35:01.052Z,9.52
2023-04-07T17:37:46.490Z,9.75
2023-04-07T17:40:32.458Z,9.68
2023-04-07T17:43:17.700Z,9.85
2023-04-07T17:46:04.464Z,9.35
2023-04-07T17:48:54.364Z,8.65
2023-04-07T17:51:40.166Z,9.20
2023-04-07T17:54:25.347Z,8.77
2023-04-07T17:57:14.268Z,8.75
2023-04-07T17:59:59.696Z,8.68
2023-04-07T18:02:45.681Z,9.18
2023-04-07T18:05:31.824Z,10.75
2023-04-07T18:08:17.194Z,10.65
2023-04-07T18:11:04.709Z,10.27
2023-04-07T18:13:51.750Z,10.55
2023-04-07T18:16:37.001Z,9.00
2023-04-07T18:19:23.576Z,9.68
2023-04-07T18:22:11.759Z,10.98
2023-04-07T18:24:59.765Z,9.88
2023-04-07T18:27:44.974Z,10.60
2023-04-07T18:30:30.365Z,12.40
2023-04-07T18:33:16.195Z,12.45
2023-04-07T18:36:09.631Z,12.07
2023-04-07T18:38:54.733Z,12.43
2023-04-07T18:41:45.434Z,12.55
2023-04-07T18:44:30.922Z,12.15
2023-04-07T18:47:18.187Z,14.32
2023-04-07T18:50:03.632Z,14.70
2023-04-07T18:52:49.618Z,13.60
2023-04-07T18:55:35.137Z,14.68
2023-04-07T18:58:20.922Z,14.00
2023-04-07T19:01:06.392Z,15.10
2023-04-07T19:03:52.578Z,17.17
2023-04-07T19:06:38.155Z,18.45
2023-04-07T19:09:23.461Z,16.52
2023-04-07T19:12:09.434Z,15.20
2023-04-07T19:14:56.168Z,15.40
2023-04-07T19:17:41.742Z,15.27
2023-04-07T19:20:27.852Z,14.98
2023-04-07T19:23:13.502Z,13.95
2023-04-07T19:25:59.548Z,13.98
2023-04-07T19:28:46.133Z,11.95
2023-04-07T19:31:31.467Z,12.27
2023-04-07T19:34:17.057Z,12.68
2023-04-07T19:37:02.391Z,12.05
2023-04-07T19:40:01.809Z,12.07
2023-04-07T19:42:47.981Z,13.85
2023-04-07T19:45:33.430Z,13.45
2023-04-07T19:48:19.133Z,13.63
2023-04-07T19:51:06.690Z,15.20
2023-04-07T19:53:53.309Z,15.32
2023-04-07T19:56:38.773Z,14.20
2023-04-07T19:59:24.231Z,12.70
2023-04-07T20:02:09.772Z,13.57
2023-04-07T20:04:55.665Z,12.73
2023-04-07T20:07:41.077Z,12.57
2023-04-07T20:10:26.751Z,13.05
2023-04-07T20:13:12.205Z,13.23
2023-04-07T20:15:58.422Z,12.20
2023-04-07T20:18:43.694Z,16.05
2023-04-07T20:21:29.212Z,16.40
2023-04-07T20:24:14.628Z,16.63
2023-04-07T20:26:59.910Z,14.95
2023-04-07T20:29:45.489Z,14.90
2023-04-07T20:32:31.046Z,16.80
2023-04-07T20:35:16.631Z,18.25
2023-04-07T20:38:02.812Z,17.50
2023-04-07T20:40:47.974Z,18.10
2023-04-07T20:43:33.411Z,16.67
2023-04-07T20:46:19.366Z,17.00
2023-04-07T20:49:07.602Z,20.10
2023-04-07T20:51:53.521Z,18.85
2023-04-07T20:54:40.202Z,17.42
2023-04-07T20:57:25.464Z,17.90
2023-04-07T21:00:11.586Z,16.67
2023-04-07T21:02:57.064Z,18.02
2023-04-07T21:05:43.376Z,17.40
2023-04-07T21:08:28.909Z,17.40
2023-04-07T21:11:14.215Z,17.08
2023-04-07T21:13:59.606Z,16.13
2023-04-07T21:16:45.219Z,15.82
2023-04-07T21:19:30.703Z,16.33
2023-04-07T21:22:16.039Z,16.05
2023-04-07T21:25:01.306Z,17.70
2023-04-07T21:27:46.666Z,16.13
2023-04-07T21:30:32.633Z,17.60
2023-04-07T21:33:18.236Z,15.90
2023-04-07T21:36:04.042Z,14.20
2023-04-07T21:38:51.855Z,14.27
2023-04-07T21:41:37.295Z,17.50
2023-04-07T21:44:23.291Z,15.70
2023-04-07T21:47:08.749Z,14.63
2023-04-07T21:49:54.786Z,15.93
2023-04-07T21:52:41.103Z,15.65
2023-04-07T21:55:27.325Z,17.45
2023-04-07T21:58:12.476Z,16.75
2023-04-07T22:00:58.221Z,15.48
2023-04-07T22:03:44.649Z,17.75
2023-04-07T22:06:29.971Z,17.33
2023-04-07T22:09:15.259Z,16.20
2023-04-07T22:12:00.623Z,17.63
2023-04-07T22:14:45.958Z,15.80
2023-04-07T22:17:31.473Z,16.08
2023-04-07T22:20:16.784Z,17.02
2023-04-07T22:23:02.165Z,16.88
2023-04-07T22:25:49.095Z,17.20
2023-04-07T22:28:34.190Z,19.73
2023-04-07T22:31:19.487Z,18.65
2023-04-07T22:34:04.784Z,18.88
2023-04-07T22:36:50.273Z,17.88
2023-04-07T22:39:36.134Z,17.48
2023-04-07T22:42:21.194Z,18.92
2023-04-07T22:45:07.262Z,17.42
2023-04-07T22:47:52.743Z,19.27
2023-04-07T22:50:38.118Z,19.25
2023-04-07T22:53:23.503Z,18.83
2023-04-07T22:56:08.897Z,18.73
2023-04-07T22:58:54.351Z,18.75
2023-04-07T23:01:39.774Z,18.52
2023-04-07T23:04:25.231Z,18.90
2023-04-07T23:07:10.789Z,22.17
2023-04-07T23:09:56.246Z,20.30
2023-04-07T23:12:41.491Z,20.77
2023-04-07T23:15:27.209Z,18.33
2023-04-07T23:18:12.213Z,18.25
2023-04-07T23:20:57.464Z,19.45
2023-04-07T23:23:43.307Z,17.00
2023-04-07T23:26:28.748Z,16.42
2023-04-07T23:29:14.174Z,16.92
2023-04-07T23:31:59.676Z,15.70
2023-04-07T23:34:44.905Z,14.18
2023-04-07T23:37:30.283Z,14.43
2023-04-07T23:40:16.013Z,13.25
2023-04-07T23:43:01.347Z,12.07
2023-04-07T23:45:46.752Z,12.02
2023-04-07T23:48:32.088Z,11.45
2023-04-07T23:51:17.628Z,11.95
2023-04-07T23:54:03.368Z,12.30
2023-04-07T23:56:48.509Z,14.80
2023-04-07T23:59:33.788Z,14.25
